Dumfries, United Kingdom
Current Conditions -  °F | °C
As of 7:50 AM on Sunday 26 Oct 2014 (Local Time) from EGOM Reporting Station
Rain Showers Rain Showers  
Wind Chill: 10°   Ceiling: Unl
Heat Index: 10°   Visibility: 4mi
Dew Point:   Wind: 29mph
Humidity: 94%   Direction: 240°WSW
Pressure: 29.77"   Gusts: 43mph
Location:  55.07°N, 3.61°W
Report Text: EGOM 260650Z AUTO 24025G37KT 7000 -SHRA SCT010/// SCT018/// 10/09 Q1008
Loading
Personal Weather Stations






























Interactive Weather Map
Tropical Storm Tracking
New forecast layout! Learn more

10-Day Weather Forecast

Advertisements
Track Severe Weather on mobile